Pagrindinis puslapis
METAR-TAF:

METAR-TAF

Oro uostai :

Sogndalis, Norvegija

platuma: 61-09N, ilguma: 007-08E, Aukštis: 49 m

Dabartinis oras

Ataskaita buvo paskelbta 28 minutes, ne 19:20 UTC
Vėjas 1 kt nuo kintamojo kryptimis
Temperatūra 13°C
Drėgmė 58%
Slėgis 1008 hPa
Matomumas 10 km arba daugiau
Išsisklaidę debesys ne aukštis 6800 ft

METAR: ENSG 141920Z VRB01KT 9999 SCT068 13/05 Q1008 RMK WIND 3806FT 11015KT

Laikas: 21:48 (19:48 UTC)

Prognozė

Ataskaita buvo paskelbta 5 valandos ir 48 minutes, ne 14:00 UTC
Prognozė galioja nuo 14 metu 15 UTC su 14 metu 21 UTC
Vėjas 5 kt nuo kintamojo kryptimis
Matomumas 10 km arba daugiau
Mažai debesys ne aukštis 4000 ft
Išsisklaidę debesys ne aukštis 8000 ft
Tikimybė 30% :
Laikinai
nuo 14 metu 15 UTC su 14 metu 18 UTC
Su prošvaistėmis ne aukštis 3000 ft, Liūtiniai kamuoliniai debesys.
lietus,

TAF: ENSG 141400Z 1415/1421 VRB05KT 9999 FEW040 SCT080 PROB30 TEMPO 1415/1418 SHRA BKN030CB

Orai ataskaitas ir orų prognozės (METAR, TAF).

turimą stotys yra geltonos ir raudonos taškus žemėlapyje.

Perkelti pele per norėdami pamatyti stoties vardą.

Tada spustelėkite, norėdami matyti oro stebėjimo ir prognozės.

Norėdami pakeisti žemėlapį: spustelėkite ant žalios mygtukų su juodo kryžiaus žemyn,; žalią mygtuką su brūkšneliu, jei norite nutolinti; arba žalių rodyklių gretimoms žemėlapius.


METAR-TAF: